»·PEaware :: DCM1420 KDAL-KLAX

DCM1420 :: KDAL-KLAX

FLIGHT INFORMATION

Flight Status: Arrived
Operator: Unknown
More flights by this operator :: More flights under this callsign
Pilot: Anonymous 5456 (5456)
Aircraft: AIRBUS A320
(A320)
More flights by this aircraft type
Origin: KDAL Dallas Love
United States
Destination: KLAX Los Angeles Intl
United States
More flights between these airports :: More routes between these airports
Route: +KKITY4 CIKAN EWM BXK PKE TNP SEAVU2
File this flight plan on PilotEdge
Remarks:
Altitude:
(Current/Filed)
34,000ft
Speed:
(Current/Filed)
450kts
Departed: 03-Nov-16 10:10 AM
Arrived: 03-Nov-16 12:56 PM
Distance/Time
Traveled:
1079nm/2:45
Distance/Time
To Go:
Arrived

Flight Plot

Page will automatically refresh every two minutes.

Flight plan parsing failed; only flown route is shown


Map Options




Map Legend


Flown Route
Filed Route
Departure Airport
Arrival Airport
Navaid (VOR, NDB)
Fix

Horizontal Profiles

Position Reports

Time Latitude Longitude Heading Altitude Ground
Speed
03-Nov-16 09:54 32.851177 -96.846939 314 494ft 0kts
03-Nov-16 09:54 32.851177 -96.846939 314 494ft 0kts
03-Nov-16 09:55 32.851177 -96.846939 314 494ft 0kts
03-Nov-16 09:56 32.851177 -96.846939 314 494ft 0kts
03-Nov-16 09:57 32.851177 -96.846939 314 494ft 0kts
03-Nov-16 09:58 32.851177 -96.846939 314 494ft 0kts
03-Nov-16 09:59 32.851129 -96.847685 169 494ft 7kts
03-Nov-16 10:00 32.848539 -96.844871 135 494ft 17kts
03-Nov-16 10:01 32.844636 -96.840331 135 494ft 21kts
03-Nov-16 10:02 32.842959 -96.838543 163 494ft 0kts
03-Nov-16 10:03 32.842404 -96.838788 225 494ft 5kts
03-Nov-16 10:04 32.851742 -96.850385 317 569ft 155kts
03-Nov-16 10:05 32.887329 -96.889185 318 2491ft 239kts
03-Nov-16 10:06 32.927919 -96.950422 268 5605ft 268kts
03-Nov-16 10:07 32.904369 -97.033367 257 8477ft 281kts
03-Nov-16 10:08 32.888336 -97.128071 260 10238ft 332kts
03-Nov-16 10:09 32.872604 -97.233333 261 12008ft 371kts
03-Nov-16 10:10 32.855224 -97.350851 261 14673ft 382kts
03-Nov-16 10:11 32.837854 -97.467825 259 17187ft 387kts
03-Nov-16 10:12 32.818783 -97.595073 258 19083ft 400kts
03-Nov-16 10:13 32.799828 -97.722878 258 20873ft 406kts
03-Nov-16 10:14 32.779995 -97.853908 258 22649ft 410kts
03-Nov-16 10:15 32.759528 -97.987695 258 24389ft 417kts
03-Nov-16 10:16 32.738418 -98.124517 258 26086ft 425kts
03-Nov-16 10:17 32.716937 -98.262848 258 27673ft 430kts
03-Nov-16 10:18 32.695389 -98.400465 258 29496ft 422kts
03-Nov-16 10:19 32.674197 -98.534879 258 30946ft 416kts
03-Nov-16 10:20 32.653541 -98.665062 258 32148ft 412kts
03-Nov-16 10:21 32.632851 -98.796750 257 33187ft 410kts
03-Nov-16 10:22 32.611698 -98.928187 257 34132ft 406kts
03-Nov-16 10:23 32.590443 -99.059239 256 34377ft 406kts
03-Nov-16 10:24 32.569156 -99.189595 256 34384ft 406kts
03-Nov-16 10:25 32.547505 -99.320977 256 34385ft 407kts
03-Nov-16 10:26 32.537808 -99.454874 263 34394ft 410kts
03-Nov-16 10:27 32.529693 -99.588994 263 34393ft 410kts
03-Nov-16 10:28 32.522476 -99.710993 262 34395ft 409kts
03-Nov-16 10:29 32.514277 -99.843785 262 34395ft 410kts
03-Nov-16 10:30 32.505730 -99.978306 262 34395ft 410kts
03-Nov-16 10:31 32.497056 -100.112490 262 34394ft 410kts
03-Nov-16 10:32 32.488216 -100.247009 262 34440ft 410kts
03-Nov-16 10:33 32.479018 -100.381685 261 34439ft 411kts
03-Nov-16 10:34 32.469975 -100.516883 261 34440ft 411kts
03-Nov-16 10:35 32.460932 -100.650841 261 34439ft 411kts
03-Nov-16 10:36 32.452241 -100.783141 261 34403ft 410kts
03-Nov-16 10:37 32.443127 -100.914328 261 34415ft 410kts
03-Nov-16 10:38 32.433582 -101.049387 261 34413ft 411kts
03-Nov-16 10:39 32.423943 -101.183747 261 34412ft 411kts
03-Nov-16 10:40 32.414160 -101.318128 260 34412ft 410kts
03-Nov-16 10:41 32.404189 -101.453014 260 34412ft 410kts
03-Nov-16 10:42 32.394127 -101.587208 260 34411ft 410kts
03-Nov-16 10:43 32.384350 -101.719834 260 34413ft 410kts
03-Nov-16 10:45 32.374217 -101.852288 260 34412ft 410kts
03-Nov-16 10:46 32.363704 -101.986823 260 34421ft 410kts
03-Nov-16 10:47 32.353063 -102.121068 260 34400ft 410kts
03-Nov-16 10:47 32.344070 -102.233120 260 34401ft 410kts
03-Nov-16 10:49 32.331365 -102.389338 259 34411ft 409kts
03-Nov-16 10:49 32.322170 -102.500918 259 34411ft 409kts
03-Nov-16 10:50 32.311849 -102.624737 259 34411ft 409kts
03-Nov-16 10:51 32.301552 -102.750848 259 34413ft 409kts
03-Nov-16 10:52 32.290429 -102.881749 259 34412ft 409kts
03-Nov-16 10:53 32.278885 -103.015287 259 34412ft 409kts
03-Nov-16 10:54 32.267549 -103.144833 259 34447ft 409kts
03-Nov-16 10:55 32.255900 -103.276376 258 34449ft 412kts
03-Nov-16 10:56 32.244081 -103.408163 259 34382ft 413kts
03-Nov-16 10:57 32.231858 -103.542978 259 34375ft 413kts
03-Nov-16 10:58 32.219679 -103.676579 259 34418ft 413kts
03-Nov-16 10:59 32.207536 -103.810747 258 34448ft 411kts
03-Nov-16 11:00 32.194966 -103.944572 258 34449ft 412kts
03-Nov-16 11:01 32.182269 -104.078199 258 34448ft 412kts
03-Nov-16 11:02 32.169424 -104.211865 258 34448ft 412kts
03-Nov-16 11:03 32.156355 -104.346362 258 34448ft 413kts
03-Nov-16 11:04 32.143177 -104.480424 258 34448ft 413kts
03-Nov-16 11:05 32.129954 -104.613559 257 34430ft 413kts
03-Nov-16 11:06 32.116943 -104.746473 257 34432ft 413kts
03-Nov-16 11:07 32.103373 -104.880774 257 34430ft 416kts
03-Nov-16 11:08 32.089524 -105.015828 257 34429ft 415kts
03-Nov-16 11:09 32.075527 -105.150834 257 34429ft 415kts
03-Nov-16 11:10 32.061454 -105.285176 257 34431ft 416kts
03-Nov-16 11:11 32.047126 -105.420488 257 34429ft 417kts
03-Nov-16 11:12 32.032715 -105.555227 257 34428ft 417kts
03-Nov-16 11:13 32.018725 -105.686110 257 34338ft 418kts
03-Nov-16 11:14 32.004333 -105.820252 256 34339ft 419kts
03-Nov-16 11:15 31.989703 -105.953117 256 34338ft 419kts
03-Nov-16 11:16 31.974810 -106.086944 256 34338ft 419kts
03-Nov-16 11:17 31.959817 -106.220429 256 34338ft 418kts
03-Nov-16 11:18 31.974464 -106.356703 278 34336ft 440kts
03-Nov-16 11:19 32.008819 -106.493345 280 34338ft 442kts
03-Nov-16 11:20 32.043929 -106.630305 280 34337ft 442kts
03-Nov-16 11:21 32.078147 -106.763112 280 34356ft 442kts
03-Nov-16 11:22 32.113512 -106.902151 280 34357ft 444kts
03-Nov-16 11:23 32.148607 -107.040995 280 34357ft 445kts
03-Nov-16 11:24 32.183711 -107.180598 280 34356ft 444kts
03-Nov-16 11:25 32.218486 -107.319636 280 34356ft 447kts
03-Nov-16 11:26 32.253456 -107.460112 280 34348ft 448kts
03-Nov-16 11:27 32.288355 -107.601043 281 34348ft 448kts
03-Nov-16 11:28 32.322623 -107.738887 280 34349ft 448kts
03-Nov-16 11:29 32.357295 -107.880218 281 34349ft 450kts
03-Nov-16 11:30 32.391913 -108.022246 281 34349ft 450kts
03-Nov-16 11:31 32.426299 -108.164085 281 34349ft 450kts
03-Nov-16 11:32 32.460471 -108.305899 281 34350ft 452kts
03-Nov-16 11:33 32.494595 -108.448107 281 34348ft 453kts
03-Nov-16 11:34 32.528675 -108.591020 281 34347ft 453kts
03-Nov-16 11:35 32.559932 -108.721534 281 34263ft 452kts
03-Nov-16 11:36 32.590067 -108.848937 281 34257ft 455kts
03-Nov-16 11:37 32.622836 -108.988438 281 34257ft 455kts
03-Nov-16 11:38 32.655618 -109.128799 281 34259ft 455kts
03-Nov-16 11:39 32.688424 -109.270074 281 34258ft 457kts
03-Nov-16 11:41 32.721772 -109.414438 282 34257ft 459kts
03-Nov-16 11:42 32.755017 -109.559197 282 34258ft 460kts
03-Nov-16 11:43 32.787089 -109.698745 281 34258ft 460kts
03-Nov-16 11:43 32.814439 -109.818520 281 34257ft 464kts
03-Nov-16 11:45 32.852313 -109.986132 281 34258ft 464kts
03-Nov-16 11:45 32.879334 -110.106482 281 34258ft 464kts
03-Nov-16 11:46 32.911850 -110.252056 281 34258ft 464kts
03-Nov-16 11:47 32.944614 -110.399626 281 34259ft 466kts
03-Nov-16 11:48 32.977170 -110.547155 281 34258ft 465kts
03-Nov-16 11:49 33.008995 -110.691544 281 34118ft 465kts
03-Nov-16 11:50 33.041830 -110.841245 281 34120ft 467kts
03-Nov-16 11:51 33.074135 -110.990297 281 34121ft 467kts
03-Nov-16 11:52 33.105706 -111.136786 281 34119ft 467kts
03-Nov-16 11:53 33.137824 -111.286388 281 34120ft 468kts
03-Nov-16 11:54 33.169497 -111.435289 281 34109ft 469kts
03-Nov-16 11:55 33.200815 -111.583495 282 34110ft 468kts
03-Nov-16 11:56 33.230602 -111.723924 281 34110ft 469kts
03-Nov-16 11:57 33.258439 -111.856959 282 34092ft 465kts
03-Nov-16 11:58 33.285881 -111.989098 282 34094ft 465kts
03-Nov-16 11:59 33.315026 -112.130360 282 34093ft 465kts
03-Nov-16 12:00 33.343041 -112.266957 282 34130ft 464kts
03-Nov-16 12:01 33.372778 -112.412862 283 34131ft 464kts
03-Nov-16 12:02 33.402384 -112.559003 282 34127ft 464kts
03-Nov-16 12:03 33.432044 -112.705292 282 34111ft 463kts
03-Nov-16 12:04 33.465476 -112.853174 290 34112ft 463kts
03-Nov-16 12:05 33.515022 -112.996015 293 34111ft 464kts
03-Nov-16 12:06 33.565635 -113.138101 293 34109ft 465kts
03-Nov-16 12:07 33.616280 -113.280759 293 34110ft 466kts
03-Nov-16 12:08 33.666799 -113.423673 294 34110ft 465kts
03-Nov-16 12:09 33.716842 -113.565837 294 34111ft 465kts
03-Nov-16 12:10 33.766669 -113.707298 293 34117ft 466kts
03-Nov-16 12:11 33.816935 -113.851127 294 34120ft 467kts
03-Nov-16 12:12 33.866892 -113.994948 294 34120ft 466kts
03-Nov-16 12:13 33.916862 -114.139484 294 34121ft 467kts
03-Nov-16 12:14 33.966234 -114.282996 295 34118ft 462kts
03-Nov-16 12:15 34.015262 -114.426063 295 34120ft 463kts
03-Nov-16 12:16 34.062989 -114.566002 295 34123ft 463kts
03-Nov-16 12:17 34.101041 -114.696819 275 34136ft 469kts
03-Nov-16 12:18 34.103759 -114.813196 273 34123ft 468kts
03-Nov-16 12:19 34.105832 -114.969637 273 34122ft 466kts
03-Nov-16 12:20 34.107510 -115.126192 273 34121ft 467kts
03-Nov-16 12:21 34.108986 -115.281960 273 34121ft 467kts
03-Nov-16 12:22 34.110329 -115.438559 273 34270ft 466kts
03-Nov-16 12:23 34.111363 -115.593996 273 33356ft 468kts
03-Nov-16 12:24 34.112648 -115.748006 273 31936ft 469kts
03-Nov-16 12:25 34.092147 -115.905252 263 30505ft 477kts
03-Nov-16 12:26 34.068559 -116.062975 264 29062ft 479kts
03-Nov-16 12:27 34.044980 -116.221062 265 27750ft 480kts
03-Nov-16 12:28 34.021397 -116.377999 264 27594ft 464kts
03-Nov-16 12:29 34.002005 -116.524894 271 26048ft 423kts
03-Nov-16 12:30 33.991646 -116.655522 271 24072ft 384kts
03-Nov-16 12:31 33.982416 -116.773789 271 22276ft 375kts
03-Nov-16 12:32 33.972399 -116.896039 271 20579ft 365kts
03-Nov-16 12:33 33.967663 -116.953306 271 19762ft 361kts
03-Nov-16 12:34 33.960800 -117.035796 271 18405ft 356kts
03-Nov-16 12:35 33.950886 -117.153464 268 16667ft 374kts
03-Nov-16 12:36 33.940601 -117.272852 268 14777ft 342kts
03-Nov-16 12:37 33.935407 -117.384059 293 14111ft 326kts
03-Nov-16 12:38 33.969618 -117.483192 287 12964ft 324kts
03-Nov-16 12:39 33.970226 -117.590392 270 11419ft 325kts
03-Nov-16 12:40 33.968513 -117.692757 268 10014ft 313kts
03-Nov-16 12:42 33.966805 -117.793376 269 8684ft 298kts
03-Nov-16 12:43 33.965046 -117.887916 269 7417ft 288kts
03-Nov-16 12:43 33.963556 -117.964768 269 6376ft 279kts
03-Nov-16 12:44 33.961869 -118.048773 269 5235ft 270kts
03-Nov-16 12:45 33.962037 -118.127402 267 4399ft 251kts
03-Nov-16 12:46 33.955490 -118.205941 264 3077ft 237kts
03-Nov-16 12:47 33.948955 -118.270829 263 1988ft 171kts
03-Nov-16 12:48 33.943819 -118.320789 262 1180ft 147kts
03-Nov-16 12:49 33.938998 -118.367425 264 422ft 142kts
03-Nov-16 12:50 33.934939 -118.401733 227 133ft 29kts
03-Nov-16 12:51 33.934318 -118.401977 145 133ft 0kts
03-Nov-16 12:52 33.934191 -118.401678 102 133ft 6kts
03-Nov-16 12:53 33.934492 -118.398621 83 133ft 8kts
03-Nov-16 12:54 33.933789 -118.399207 281 133ft 7kts
03-Nov-16 12:55 33.933583 -118.399936 170 133ft 0kts

Navigation Log

Ident Type
Flight plan parsing failed, navigation log unavailable